createdAt,value
2019-05-22T00:00:16.106Z,18.42
2019-05-22T00:01:16.539Z,16.60
2019-05-22T00:02:16.974Z,17.94
2019-05-22T00:03:17.413Z,14.77
2019-05-22T00:04:17.846Z,16.50
2019-05-22T00:05:18.281Z,17.36
2019-05-22T00:06:18.713Z,20.64
2019-05-22T00:07:19.153Z,24.57
2019-05-22T00:08:19.593Z,22.45
2019-05-22T00:09:20.043Z,24.28
2019-05-22T00:10:20.457Z,23.88
2019-05-22T00:11:20.896Z,24.86
2019-05-22T00:12:21.328Z,26.28
2019-05-22T00:13:21.772Z,23.98
2019-05-22T00:14:22.218Z,20.72
2019-05-22T00:15:22.646Z,23.98
2019-05-22T00:16:23.070Z,23.02
2019-05-22T00:17:23.505Z,24.18
2019-05-22T00:18:23.976Z,22.35
2019-05-22T00:19:24.384Z,25.99
2019-05-22T00:20:24.842Z,26.38
2019-05-22T00:21:25.253Z,27.34
2019-05-22T00:22:25.685Z,27.82
2019-05-22T00:23:26.128Z,30.02
2019-05-22T00:24:26.559Z,25.32
2019-05-22T00:25:26.986Z,23.02
2019-05-22T00:26:27.431Z,23.88
2019-05-22T00:27:27.891Z,25.61
2019-05-22T00:28:28.296Z,31.37
2019-05-22T00:29:28.743Z,34.44
2019-05-22T00:30:29.167Z,32.33
2019-05-22T00:31:29.602Z,27.72
2019-05-22T00:32:30.040Z,26.28
2019-05-22T00:33:30.475Z,24.65
2019-05-22T00:34:30.910Z,25.52
2019-05-22T00:35:31.350Z,23.12
2019-05-22T00:36:31.778Z,22.16
2019-05-22T00:37:32.216Z,22.16
2019-05-22T00:38:32.653Z,21.95
2019-05-22T00:39:33.086Z,19.46
2019-05-22T00:40:33.561Z,21.77
2019-05-22T00:41:33.973Z,22.05
2019-05-22T00:42:34.390Z,19.75
2019-05-22T00:43:34.822Z,21.67
2019-05-22T00:44:35.258Z,24.35
2019-05-22T00:45:37.406Z,24.26
2019-05-22T00:46:36.132Z,23.78
2019-05-22T00:47:36.567Z,26.46
2019-05-22T00:48:37.048Z,29.82
2019-05-22T00:49:37.451Z,31.45
2019-05-22T00:50:37.881Z,31.74
2019-05-22T00:51:38.307Z,29.15
2019-05-22T00:55:45.963Z,27.60
2019-05-22T00:56:46.328Z,25.01
2019-05-22T00:58:41.901Z,23.48
2019-05-22T01:01:15.774Z,25.49
2019-05-22T01:02:16.173Z,30.67
2019-05-22T01:04:36.178Z,31.24
2019-05-22T01:05:36.542Z,31.15
2019-05-22T01:07:31.114Z,32.68
2019-05-22T01:08:31.543Z,30.29
2019-05-22T01:10:26.105Z,25.78
2019-05-22T01:11:26.540Z,26.64
2019-05-22T01:14:57.856Z,37.97
2019-05-22T01:15:58.235Z,33.92
2019-05-22T01:17:52.799Z,35.94
2019-05-22T01:18:53.225Z,34.22
2019-05-22T01:21:03.893Z,37.85
2019-05-22T01:22:04.329Z,38.93
2019-05-22T01:24:38.851Z,38.05
2019-05-22T01:25:39.268Z,40.92
2019-05-22T01:27:33.841Z,39.79
2019-05-22T01:28:34.263Z,45.54
2019-05-22T01:30:28.848Z,34.98
2019-05-22T01:31:29.281Z,33.83
2019-05-22T01:33:23.852Z,41.23
2019-05-22T01:34:24.284Z,42.10
2019-05-22T01:36:19.865Z,34.02
2019-05-22T01:37:20.296Z,28.55
2019-05-22T01:39:15.287Z,27.12
2019-05-22T01:40:15.292Z,26.53
2019-05-22T01:42:10.850Z,26.92
2019-05-22T01:43:11.285Z,26.74
2019-05-22T01:44:11.717Z,31.53
2019-05-22T01:45:12.154Z,34.22
2019-05-22T01:46:12.591Z,32.87
2019-05-22T01:47:13.020Z,30.94
2019-05-22T01:48:13.522Z,31.53
2019-05-22T01:49:13.880Z,32.20
2019-05-22T01:50:14.327Z,32.68
2019-05-22T01:51:14.760Z,34.14
2019-05-22T01:52:15.206Z,39.01
2019-05-22T01:53:15.639Z,39.48
2019-05-22T01:54:16.060Z,40.66
2019-05-22T01:55:16.498Z,38.05
2019-05-22T01:56:16.992Z,35.75
2019-05-22T01:57:17.401Z,34.20
2019-05-22T01:58:17.867Z,34.87
2019-05-22T01:59:18.224Z,32.76
2019-05-22T02:00:18.662Z,33.45
2019-05-22T02:01:19.118Z,32.76
2019-05-22T02:02:19.529Z,35.75
2019-05-22T02:03:19.963Z,40.06
2019-05-22T02:05:53.495Z,39.29
2019-05-22T02:06:53.920Z,39.87
2019-05-22T02:08:48.485Z,42.27
2019-05-22T02:09:48.911Z,42.17
2019-05-22T02:11:43.578Z,36.79
2019-05-22T02:12:44.011Z,37.95
2019-05-22T02:14:38.625Z,36.79
2019-05-22T02:15:39.033Z,41.50
2019-05-22T02:17:33.581Z,43.23
2019-05-22T02:18:34.034Z,45.04
2019-05-22T02:20:28.575Z,41.48
2019-05-22T02:21:29.001Z,39.77
2019-05-22T02:23:23.559Z,38.12
2019-05-22T02:24:24.005Z,36.11
2019-05-22T02:26:19.552Z,34.58
2019-05-22T02:27:19.978Z,33.81
2019-05-22T02:29:14.547Z,33.81
2019-05-22T02:30:14.970Z,35.83
2019-05-22T02:32:09.534Z,35.53
2019-05-22T02:33:09.977Z,38.22
2019-05-22T02:35:05.529Z,37.16
2019-05-22T02:36:05.953Z,40.92
2019-05-22T02:38:00.525Z,53.19
2019-05-22T02:39:00.948Z,50.99
2019-05-22T02:40:55.561Z,45.72
2019-05-22T02:41:55.990Z,46.00
2019-05-22T02:43:50.545Z,44.54
2019-05-22T02:44:50.979Z,41.38
2019-05-22T02:46:45.549Z,41.60
2019-05-22T02:47:45.973Z,39.37
2019-05-22T02:49:40.530Z,45.14
2019-05-22T02:50:40.976Z,43.01
2019-05-22T02:52:35.533Z,34.58
2019-05-22T02:53:35.983Z,33.81
2019-05-22T02:55:30.561Z,48.49
2019-05-22T02:56:30.974Z,41.28
2019-05-22T02:58:25.535Z,41.02
2019-05-22T02:59:25.971Z,45.23
2019-05-22T03:01:20.636Z,48.69
2019-05-22T03:02:21.105Z,48.69
2019-05-22T03:04:15.554Z,31.69
2019-05-22T03:05:16.360Z,27.58
2019-05-22T03:06:16.489Z,23.36
2019-05-22T03:07:16.863Z,21.83
2019-05-22T03:08:17.288Z,18.96
2019-05-22T03:09:17.714Z,17.80
2019-05-22T03:10:18.172Z,16.46
2019-05-22T03:11:18.648Z,15.32
2019-05-22T03:12:19.177Z,12.82
2019-05-22T03:13:19.490Z,11.01
2019-05-22T03:14:19.927Z,10.91
2019-05-22T03:15:20.315Z,11.20
2019-05-22T03:16:20.900Z,11.20
2019-05-22T03:17:21.283Z,11.10
2019-05-22T03:18:21.707Z,10.53
2019-05-22T03:19:22.044Z,9.67
2019-05-22T03:20:22.491Z,9.48
2019-05-22T03:21:22.926Z,8.81
2019-05-22T03:22:23.351Z,7.94
2019-05-22T03:23:23.820Z,7.84
2019-05-22T03:24:24.266Z,7.08
2019-05-22T03:25:24.646Z,6.02
2019-05-22T03:26:25.162Z,4.40
2019-05-22T03:27:25.586Z,5.07
2019-05-22T03:28:26.006Z,5.36
2019-05-22T03:29:26.370Z,4.88
2019-05-22T03:30:27.194Z,4.78
2019-05-22T03:31:27.448Z,4.78
2019-05-22T03:32:27.767Z,4.30
2019-05-22T03:33:28.348Z,3.63
2019-05-22T03:34:28.649Z,2.01
2019-05-22T03:35:29.400Z,1.34
2019-05-22T03:36:29.616Z,0.95
2019-05-22T03:37:29.837Z,1.24
2019-05-22T03:38:30.385Z,1.15
2019-05-22T03:39:30.855Z,0.48
2019-05-22T03:40:31.206Z,0.00
2019-05-22T03:41:31.580Z,0.00
2019-05-22T03:42:32.059Z,0.00
2019-05-22T03:43:32.432Z,0.00
2019-05-22T03:44:32.906Z,0.00
2019-05-22T03:45:33.359Z,0.00
2019-05-22T03:46:33.820Z,0.00
2019-05-22T03:47:34.229Z,0.00
2019-05-22T03:48:34.622Z,0.00
2019-05-22T03:49:35.066Z,0.00
2019-05-22T03:50:35.528Z,0.76
2019-05-22T03:51:35.927Z,2.29
2019-05-22T03:52:36.324Z,1.91
2019-05-22T03:53:36.762Z,1.34
2019-05-22T03:54:37.191Z,1.72
2019-05-22T03:55:37.627Z,0.57
2019-05-22T03:56:38.097Z,1.05
2019-05-22T03:57:38.545Z,2.20
2019-05-22T03:58:38.991Z,3.44
2019-05-22T03:59:39.361Z,2.29
2019-05-22T04:00:43.348Z,1.81
2019-05-22T04:01:40.373Z,1.24
2019-05-22T04:02:40.727Z,1.24
2019-05-22T04:03:41.220Z,0.19
2019-05-22T04:04:41.511Z,0.00
2019-05-22T04:05:42.065Z,0.00
2019-05-22T04:06:42.424Z,0.00
2019-05-22T04:07:42.817Z,0.00
2019-05-22T04:08:43.247Z,0.00
2019-05-22T04:09:43.769Z,0.00
2019-05-22T04:10:44.255Z,0.00
2019-05-22T04:11:44.657Z,0.00
2019-05-22T04:12:45.047Z,0.00
2019-05-22T04:13:45.406Z,0.00
2019-05-22T04:14:45.859Z,0.00
2019-05-22T04:15:46.276Z,0.00
2019-05-22T04:16:46.739Z,0.00
2019-05-22T04:17:47.249Z,0.00
2019-05-22T04:18:47.618Z,0.00
2019-05-22T04:19:51.105Z,0.00
2019-05-22T04:20:48.451Z,0.00
2019-05-22T04:21:49.030Z,0.00
2019-05-22T04:22:49.293Z,0.00
2019-05-22T04:23:49.887Z,0.00
2019-05-22T04:24:50.158Z,0.00
2019-05-22T04:25:53.328Z,0.00
2019-05-22T04:26:51.128Z,0.00
2019-05-22T04:27:51.632Z,0.00
2019-05-22T04:28:52.038Z,0.00
2019-05-22T04:29:52.470Z,0.00
2019-05-22T04:30:52.801Z,0.00
2019-05-22T04:31:53.384Z,0.00
2019-05-22T04:32:53.728Z,0.00
2019-05-22T04:33:54.082Z,0.00
2019-05-22T04:34:54.553Z,0.00
2019-05-22T04:35:54.952Z,0.00
2019-05-22T04:36:55.354Z,0.00
2019-05-22T04:37:55.783Z,0.00
2019-05-22T04:38:56.279Z,0.00
2019-05-22T04:39:56.642Z,0.00
2019-05-22T04:40:57.082Z,0.00
2019-05-22T04:41:57.514Z,0.00
2019-05-22T04:42:57.947Z,0.00
2019-05-22T04:43:58.380Z,0.00
2019-05-22T04:44:58.809Z,0.00
2019-05-22T04:45:59.240Z,0.00
2019-05-22T04:46:59.668Z,0.00
2019-05-22T04:48:00.096Z,0.00
2019-05-22T04:49:00.557Z,0.00
2019-05-22T04:50:07.658Z,0.00
2019-05-22T04:51:01.391Z,0.00
2019-05-22T04:52:01.856Z,0.00
2019-05-22T04:53:02.258Z,0.00
2019-05-22T04:54:02.690Z,0.00
2019-05-22T04:55:03.125Z,0.00
2019-05-22T04:56:03.550Z,0.00
2019-05-22T04:57:03.992Z,0.00
2019-05-22T04:58:04.421Z,0.00
2019-05-22T04:59:04.881Z,0.00
2019-05-22T05:00:05.292Z,0.00
2019-05-22T05:01:05.712Z,0.00
2019-05-22T05:02:06.147Z,0.00
2019-05-22T05:03:06.584Z,0.00
2019-05-22T05:04:07.009Z,0.00
2019-05-22T05:05:07.437Z,0.00
2019-05-22T05:06:07.878Z,0.00
2019-05-22T05:07:08.307Z,0.00
2019-05-22T05:08:08.728Z,0.00
2019-05-22T05:09:09.165Z,0.00
2019-05-22T05:10:09.601Z,0.00
2019-05-22T05:11:10.032Z,0.00
2019-05-22T05:12:10.458Z,0.00
2019-05-22T05:13:10.901Z,0.00
2019-05-22T05:14:11.338Z,0.00
2019-05-22T05:15:11.760Z,0.00
2019-05-22T05:16:12.183Z,0.00
2019-05-22T05:17:12.619Z,0.00
2019-05-22T05:18:13.053Z,0.00
2019-05-22T05:19:13.481Z,0.48
2019-05-22T05:20:22.046Z,0.00
2019-05-22T05:21:14.342Z,0.19
2019-05-22T05:22:14.777Z,0.00
2019-05-22T05:23:15.212Z,0.00
2019-05-22T05:24:15.646Z,0.00
2019-05-22T05:25:16.073Z,0.09
2019-05-22T05:26:16.507Z,0.19
2019-05-22T05:27:16.944Z,0.00
2019-05-22T05:28:17.360Z,0.28
2019-05-22T05:29:17.814Z,0.48
2019-05-22T05:30:18.244Z,0.00
2019-05-22T05:31:18.663Z,0.28
2019-05-22T05:32:19.092Z,0.57
2019-05-22T05:33:19.522Z,0.76
2019-05-22T05:34:19.958Z,0.19
2019-05-22T05:35:20.387Z,2.00
2019-05-22T05:36:20.818Z,2.86
2019-05-22T05:37:21.246Z,3.72
2019-05-22T05:38:21.680Z,3.72
2019-05-22T05:39:22.115Z,2.96
2019-05-22T05:40:22.555Z,1.91
2019-05-22T05:41:22.972Z,2.67
2019-05-22T05:42:23.405Z,2.96
2019-05-22T05:43:23.834Z,3.72
2019-05-22T05:44:24.266Z,3.53
2019-05-22T05:45:24.715Z,0.38
2019-05-22T05:46:25.137Z,1.34
2019-05-22T05:47:25.561Z,1.53
2019-05-22T05:48:26.105Z,1.72
2019-05-22T05:49:26.421Z,0.00
2019-05-22T05:50:38.872Z,0.19
2019-05-22T05:51:27.284Z,0.00
2019-05-22T05:52:27.718Z,0.09
2019-05-22T05:53:28.151Z,0.00
2019-05-22T05:54:30.296Z,0.00
2019-05-22T05:55:29.005Z,0.00
2019-05-22T05:56:29.441Z,0.00
2019-05-22T05:57:29.878Z,0.00
2019-05-22T05:58:30.354Z,0.00
2019-05-22T05:59:30.735Z,0.00
2019-05-22T06:00:31.166Z,0.00
2019-05-22T06:01:31.611Z,0.00
2019-05-22T06:02:32.025Z,0.00
2019-05-22T06:03:32.459Z,0.00
2019-05-22T06:04:35.048Z,0.00
2019-05-22T06:05:33.317Z,0.00
2019-05-22T06:06:33.749Z,0.00
2019-05-22T06:07:34.179Z,0.00
2019-05-22T06:08:34.611Z,0.00
2019-05-22T06:09:35.041Z,0.00
2019-05-22T06:10:35.470Z,0.00
2019-05-22T06:11:35.905Z,0.00
2019-05-22T06:12:36.348Z,0.00
2019-05-22T06:13:36.765Z,0.00
2019-05-22T06:14:37.270Z,0.00
2019-05-22T06:15:46.650Z,0.00
2019-05-22T06:16:38.052Z,0.00
2019-05-22T06:17:38.489Z,0.00
2019-05-22T06:18:38.922Z,0.00
2019-05-22T06:19:39.360Z,0.00
2019-05-22T06:20:39.777Z,0.00
2019-05-22T06:21:40.207Z,0.00
2019-05-22T06:22:40.644Z,0.00
2019-05-22T06:23:41.069Z,0.00
2019-05-22T06:24:41.497Z,0.00
2019-05-22T06:25:41.934Z,0.00
2019-05-22T06:26:42.362Z,0.00
2019-05-22T06:27:42.793Z,0.00
2019-05-22T06:28:43.232Z,0.00
2019-05-22T06:29:43.665Z,0.00
2019-05-22T06:30:44.085Z,0.00
2019-05-22T06:31:44.514Z,0.00
2019-05-22T06:32:44.951Z,0.00
2019-05-22T06:33:45.377Z,0.00
2019-05-22T06:34:45.811Z,0.00
2019-05-22T06:35:46.237Z,0.00
2019-05-22T06:36:46.668Z,0.00
2019-05-22T06:37:47.119Z,0.00
2019-05-22T06:38:47.526Z,0.00
2019-05-22T06:39:47.960Z,0.19
2019-05-22T06:40:48.394Z,0.19
2019-05-22T06:41:48.823Z,0.95
2019-05-22T06:42:49.251Z,1.90
2019-05-22T06:43:49.682Z,2.48
2019-05-22T06:44:50.116Z,2.96
2019-05-22T06:45:50.608Z,2.96
2019-05-22T06:46:51.018Z,3.34
2019-05-22T06:47:51.409Z,2.86
2019-05-22T06:48:51.846Z,3.82
2019-05-22T06:49:52.271Z,4.58
2019-05-22T06:50:52.695Z,5.44
2019-05-22T06:51:53.140Z,5.35
2019-05-22T06:53:53.984Z,6.40
2019-05-22T06:54:54.422Z,6.12
2019-05-22T06:55:54.857Z,7.74
2019-05-22T06:56:55.282Z,7.45
2019-05-22T06:57:55.711Z,8.12
2019-05-22T06:58:56.141Z,7.74
2019-05-22T07:00:17.734Z,7.83
2019-05-22T07:00:57.003Z,10.60
2019-05-22T07:02:01.460Z,15.47
2019-05-22T07:02:57.876Z,15.48
2019-05-22T07:03:58.296Z,14.62
2019-05-22T07:04:58.732Z,16.63
2019-05-22T07:06:20.336Z,15.67
2019-05-22T07:06:59.595Z,15.77
2019-05-22T07:08:00.023Z,17.77
2019-05-22T07:09:00.457Z,18.15
2019-05-22T07:10:00.877Z,17.96
2019-05-22T07:11:01.322Z,20.64
2019-05-22T07:12:22.900Z,20.06
2019-05-22T07:13:02.183Z,22.18
2019-05-22T07:14:02.606Z,23.52
2019-05-22T07:15:03.039Z,24.37
2019-05-22T07:16:03.485Z,23.50
2019-05-22T07:17:03.910Z,23.60
2019-05-22T07:18:25.484Z,22.36
2019-05-22T07:19:04.769Z,21.21
2019-05-22T07:20:05.195Z,21.59
2019-05-22T07:21:05.625Z,19.78
2019-05-22T07:22:06.054Z,20.26
2019-05-22T07:23:06.492Z,21.69
2019-05-22T07:24:28.091Z,21.59
2019-05-22T07:25:07.351Z,25.51
2019-05-22T07:26:07.771Z,25.51
2019-05-22T07:27:08.211Z,24.74
2019-05-22T07:28:08.641Z,24.27
2019-05-22T07:29:09.070Z,24.37
2019-05-22T07:30:30.665Z,26.18
2019-05-22T07:31:10.010Z,25.42
2019-05-22T07:32:10.369Z,25.70
2019-05-22T07:33:10.791Z,27.04
2019-05-22T07:34:11.227Z,27.42
2019-05-22T07:35:11.655Z,26.46
2019-05-22T07:36:33.248Z,23.80
2019-05-22T07:37:12.521Z,27.90
2019-05-22T07:38:12.964Z,27.42
2019-05-22T07:39:13.384Z,28.09
2019-05-22T07:40:13.815Z,26.37
2019-05-22T07:41:14.238Z,25.23
2019-05-22T07:42:35.851Z,27.52
2019-05-22T07:43:15.110Z,26.09
2019-05-22T07:44:15.539Z,28.00
2019-05-22T07:45:15.971Z,29.81
2019-05-22T07:46:16.411Z,29.91
2019-05-22T07:47:16.832Z,29.91
2019-05-22T07:48:38.432Z,30.86
2019-05-22T07:49:17.692Z,29.43
2019-05-22T07:50:18.127Z,32.20
2019-05-22T07:51:18.559Z,31.34
2019-05-22T07:52:18.987Z,31.72
2019-05-22T07:53:19.436Z,28.86
2019-05-22T07:54:41.008Z,32.01
2019-05-22T07:55:20.391Z,34.70
2019-05-22T07:56:20.709Z,36.60
2019-05-22T07:57:21.153Z,37.19
2019-05-22T07:58:21.575Z,36.61
2019-05-22T07:59:22.025Z,37.74
2019-05-22T08:00:43.614Z,36.79
2019-05-22T08:01:22.866Z,39.08
2019-05-22T08:02:23.295Z,36.96
2019-05-22T08:03:23.728Z,36.79
2019-05-22T08:04:24.163Z,37.55
2019-05-22T08:05:24.595Z,39.18
2019-05-22T08:06:46.185Z,42.33
2019-05-22T08:07:25.456Z,42.24
2019-05-22T08:08:25.884Z,39.08
2019-05-22T08:09:26.317Z,40.23
2019-05-22T08:10:26.746Z,40.03
2019-05-22T08:11:27.183Z,41.09
2019-05-22T08:12:48.768Z,42.07
2019-05-22T08:13:28.066Z,43.09
2019-05-22T08:14:28.489Z,43.98
2019-05-22T08:15:28.900Z,45.12
2019-05-22T08:16:29.333Z,46.27
2019-05-22T08:17:29.764Z,44.07
2019-05-22T08:18:51.361Z,45.10
2019-05-22T08:19:30.626Z,45.70
2019-05-22T08:20:31.060Z,47.78
2019-05-22T08:21:31.484Z,47.58
2019-05-22T08:22:31.919Z,45.67
2019-05-22T08:23:32.349Z,44.05
2019-05-22T08:24:53.943Z,47.20
2019-05-22T08:25:33.211Z,45.58
2019-05-22T08:26:33.652Z,44.53
2019-05-22T08:27:34.077Z,46.46
2019-05-22T08:28:34.512Z,46.27
2019-05-22T08:29:34.939Z,48.57
2019-05-22T08:30:56.531Z,46.82
2019-05-22T08:31:35.807Z,47.68
2019-05-22T08:32:36.247Z,48.07
2019-05-22T08:33:36.669Z,47.42
2019-05-22T08:34:37.091Z,48.47
2019-05-22T08:35:37.529Z,49.62
2019-05-22T08:36:59.199Z,50.64
2019-05-22T08:37:38.386Z,48.35
2019-05-22T08:38:38.824Z,48.54
2019-05-22T08:39:39.275Z,48.44
2019-05-22T08:40:39.685Z,47.30
2019-05-22T08:41:40.121Z,43.09
2019-05-22T08:43:01.757Z,45.20
2019-05-22T08:44:03.364Z,43.57
2019-05-22T08:44:41.406Z,44.34
2019-05-22T08:45:41.843Z,46.72
2019-05-22T08:46:42.271Z,46.92
2019-05-22T08:47:42.703Z,46.06
2019-05-22T08:49:04.307Z,46.27
2019-05-22T08:49:43.578Z,47.52
2019-05-22T08:50:44.385Z,47.23
2019-05-22T08:51:44.436Z,48.35
2019-05-22T08:52:44.867Z,48.47
2019-05-22T08:53:47.991Z,49.62
2019-05-22T08:55:06.880Z,50.00
2019-05-22T08:55:46.157Z,50.86
2019-05-22T08:56:46.595Z,50.67
2019-05-22T08:57:47.048Z,49.52
2019-05-22T08:58:47.452Z,50.76
2019-05-22T08:59:47.884Z,50.67
2019-05-22T09:01:09.475Z,51.91
2019-05-22T09:01:48.743Z,53.82
2019-05-22T09:02:49.176Z,53.73
2019-05-22T09:03:49.609Z,54.11
2019-05-22T09:04:50.045Z,53.92
2019-05-22T09:05:50.471Z,52.48
2019-05-22T09:07:12.069Z,52.39
2019-05-22T09:07:51.340Z,51.53
2019-05-22T09:08:51.767Z,52.39
2019-05-22T09:09:52.203Z,51.72
2019-05-22T09:10:52.642Z,52.58
2019-05-22T09:11:53.061Z,50.67
2019-05-22T09:13:14.659Z,48.66
2019-05-22T09:13:53.932Z,49.52
2019-05-22T09:14:54.360Z,50.86
2019-05-22T09:15:54.794Z,52.96
2019-05-22T09:16:55.226Z,52.20
2019-05-22T09:17:55.656Z,51.34
2019-05-22T09:19:17.256Z,50.29
2019-05-22T09:19:56.522Z,47.42
2019-05-22T09:20:56.966Z,45.51
2019-05-22T09:21:57.392Z,45.60
2019-05-22T09:22:57.816Z,43.69
2019-05-22T09:23:58.247Z,39.77
2019-05-22T09:25:19.844Z,41.30
2019-05-22T09:25:59.119Z,43.40
2019-05-22T09:27:02.731Z,43.12
2019-05-22T09:27:59.982Z,44.07
2019-05-22T09:29:00.414Z,46.27
2019-05-22T09:30:00.844Z,47.32
2019-05-22T09:31:22.439Z,50.02
2019-05-22T09:32:01.714Z,48.28
2019-05-22T09:33:02.139Z,50.09
2019-05-22T09:34:02.570Z,51.07
2019-05-22T09:35:03.009Z,54.02
2019-05-22T09:36:03.568Z,52.96
2019-05-22T09:37:25.027Z,51.81
2019-05-22T09:38:04.311Z,54.02
2019-05-22T09:39:04.731Z,50.29
2019-05-22T09:40:05.173Z,50.76
2019-05-22T09:41:05.594Z,51.43
2019-05-22T09:42:06.093Z,51.72
2019-05-22T09:43:27.625Z,52.10
2019-05-22T09:44:06.893Z,52.01
2019-05-22T09:45:07.328Z,51.81
2019-05-22T09:46:07.765Z,53.06
2019-05-22T09:47:08.204Z,53.16
2019-05-22T09:48:08.626Z,54.30
2019-05-22T09:49:30.217Z,54.78
2019-05-22T09:50:09.488Z,54.49
2019-05-22T09:51:09.923Z,54.90
2019-05-22T09:52:10.361Z,56.24
2019-05-22T09:53:10.795Z,59.18
2019-05-22T09:54:11.219Z,57.07
2019-05-22T09:55:32.819Z,56.79
2019-05-22T09:56:12.082Z,57.46
2019-05-22T09:57:12.518Z,56.21
2019-05-22T09:58:12.953Z,58.63
2019-05-22T09:59:13.383Z,58.34
2019-05-22T10:00:13.847Z,60.06
2019-05-22T10:01:35.416Z,60.35
2019-05-22T10:02:14.677Z,62.01
2019-05-22T10:03:15.112Z,61.22
2019-05-22T10:04:15.555Z,59.20
2019-05-22T10:05:15.983Z,58.51
2019-05-22T10:06:16.409Z,56.02
2019-05-22T10:07:38.010Z,55.35
2019-05-22T10:08:17.275Z,54.88
2019-05-22T10:09:17.711Z,52.77
2019-05-22T10:10:18.178Z,54.04
2019-05-22T10:11:18.582Z,56.53
2019-05-22T10:12:19.010Z,56.24
2019-05-22T10:13:40.983Z,56.62
2019-05-22T10:14:19.872Z,56.53
2019-05-22T10:15:20.412Z,55.19
2019-05-22T10:16:20.731Z,54.88
2019-05-22T10:17:21.174Z,54.90
2019-05-22T10:18:21.602Z,53.92
2019-05-22T10:19:43.192Z,50.95
2019-05-22T10:20:22.475Z,50.67
2019-05-22T10:21:22.902Z,50.29
2019-05-22T10:22:23.328Z,50.00
2019-05-22T10:23:23.762Z,50.09
2019-05-22T10:24:24.198Z,50.76
2019-05-22T10:25:45.784Z,50.98
2019-05-22T10:26:25.059Z,53.66
2019-05-22T10:27:25.494Z,54.88
2019-05-22T10:28:25.922Z,53.85
2019-05-22T10:29:26.356Z,54.02
2019-05-22T10:30:26.791Z,54.59
2019-05-22T10:31:48.380Z,54.02
2019-05-22T10:32:31.877Z,54.30
2019-05-22T10:33:28.087Z,54.61
2019-05-22T10:34:28.519Z,55.19
2019-05-22T10:35:28.947Z,56.12
2019-05-22T10:36:29.385Z,57.75
2019-05-22T10:37:50.980Z,59.27
2019-05-22T10:38:30.250Z,56.60
2019-05-22T10:39:30.678Z,57.58
2019-05-22T10:40:31.114Z,59.30
2019-05-22T10:41:31.541Z,59.78
2019-05-22T10:42:31.981Z,60.55
2019-05-22T10:43:53.582Z,59.37
2019-05-22T10:44:32.875Z,58.44
2019-05-22T10:45:33.293Z,58.92
2019-05-22T10:46:33.704Z,60.64
2019-05-22T10:47:34.155Z,61.12
2019-05-22T10:48:34.581Z,61.88
2019-05-22T10:49:56.160Z,62.74
2019-05-22T10:50:35.436Z,64.66
2019-05-22T10:51:35.868Z,62.94
2019-05-22T10:52:36.310Z,61.88
2019-05-22T10:53:36.735Z,60.93
2019-05-22T10:54:37.179Z,60.93
2019-05-22T10:55:58.786Z,61.02
2019-05-22T10:56:38.039Z,59.75
2019-05-22T10:57:40.935Z,59.49
2019-05-22T10:58:38.901Z,60.45
2019-05-22T10:59:39.333Z,61.98
2019-05-22T11:00:39.764Z,62.27
2019-05-22T11:02:01.359Z,62.94
2019-05-22T11:02:40.629Z,63.60
2019-05-22T11:03:41.066Z,62.62
2019-05-22T11:04:41.528Z,62.04
2019-05-22T11:05:41.924Z,63.60
2019-05-22T11:06:42.357Z,64.43
2019-05-22T11:08:03.980Z,63.10
2019-05-22T11:08:43.231Z,63.19
2019-05-22T11:09:43.657Z,65.04
2019-05-22T11:10:45.297Z,66.00
2019-05-22T11:11:44.533Z,67.72
2019-05-22T11:12:44.952Z,67.63
2019-05-22T11:14:09.491Z,67.24
2019-05-22T11:14:45.815Z,66.67
2019-05-22T11:15:46.252Z,66.47
2019-05-22T11:16:46.683Z,64.15
2019-05-22T11:17:47.142Z,63.76
2019-05-22T11:18:47.540Z,63.19
2019-05-22T11:20:09.150Z,62.62
2019-05-22T11:20:48.418Z,62.62
2019-05-22T11:21:48.842Z,60.99
2019-05-22T11:22:49.277Z,60.52
2019-05-22T11:23:52.628Z,59.75
2019-05-22T11:24:50.138Z,57.36
2019-05-22T11:26:11.762Z,53.73
2019-05-22T11:26:51.025Z,53.25
2019-05-22T11:27:51.444Z,54.59
2019-05-22T11:28:51.885Z,53.73
2019-05-22T11:29:52.316Z,53.82
2019-05-22T11:30:52.734Z,54.78
2019-05-22T11:32:14.326Z,54.21
2019-05-22T11:32:53.616Z,55.16
2019-05-22T11:33:54.040Z,55.35
2019-05-22T11:34:54.475Z,56.40
2019-05-22T11:35:54.903Z,53.06
2019-05-22T11:36:55.337Z,53.92
2019-05-22T11:38:16.920Z,55.74
2019-05-22T11:38:56.188Z,54.30
2019-05-22T11:39:56.631Z,54.88
2019-05-22T11:40:57.055Z,57.93
2019-05-22T11:41:57.479Z,59.27
2019-05-22T11:42:57.916Z,58.80
2019-05-22T11:44:19.509Z,61.60
2019-05-22T11:44:58.778Z,62.14
2019-05-22T11:45:59.211Z,61.95
2019-05-22T11:46:59.645Z,61.79
2019-05-22T11:48:00.100Z,62.84
2019-05-22T11:49:00.509Z,65.42
2019-05-22T11:50:22.107Z,66.76
2019-05-22T11:51:01.371Z,65.97
2019-05-22T11:52:01.802Z,65.58
2019-05-22T11:53:02.305Z,64.85
2019-05-22T11:54:09.161Z,66.76
2019-05-22T11:55:03.107Z,68.49
2019-05-22T11:56:24.702Z,70.01
2019-05-22T11:57:03.970Z,70.01
2019-05-22T11:58:04.396Z,70.40
2019-05-22T11:59:04.824Z,69.06
2019-05-22T12:00:09.028Z,69.25
2019-05-22T12:01:05.704Z,70.01
2019-05-22T12:02:27.375Z,70.30
2019-05-22T12:03:06.567Z,68.77
2019-05-22T12:04:07.034Z,65.81
2019-05-22T12:05:07.551Z,60.90
2019-05-22T12:06:07.866Z,59.69
2019-05-22T12:07:08.545Z,58.12
2019-05-22T12:08:29.896Z,56.60
2019-05-22T12:09:09.150Z,54.59
2019-05-22T12:10:09.584Z,54.80
2019-05-22T12:11:10.015Z,55.26
2019-05-22T12:12:10.446Z,54.02
2019-05-22T12:13:10.900Z,54.68
2019-05-22T12:14:32.481Z,53.63
2019-05-22T12:15:11.738Z,53.73
2019-05-22T12:16:12.182Z,53.34
2019-05-22T12:17:12.607Z,52.96
2019-05-22T12:18:13.048Z,53.82
2019-05-22T12:19:13.479Z,53.92
2019-05-22T12:20:35.066Z,55.07
2019-05-22T12:21:14.333Z,55.93
2019-05-22T12:22:14.769Z,57.77
2019-05-22T12:23:15.203Z,58.54
2019-05-22T12:24:26.972Z,59.88
2019-05-22T12:25:16.063Z,61.88
2019-05-22T12:26:37.664Z,62.27
2019-05-22T12:27:16.933Z,62.27
2019-05-22T12:28:17.365Z,63.60
2019-05-22T12:29:18.073Z,66.96
2019-05-22T12:30:18.221Z,68.10
2019-05-22T12:31:18.660Z,67.43
2019-05-22T12:32:40.452Z,68.58
2019-05-22T12:33:19.523Z,68.39
2019-05-22T12:34:19.958Z,69.54
2019-05-22T12:35:20.390Z,66.96
2019-05-22T12:36:20.818Z,64.37
2019-05-22T12:37:21.249Z,62.94
2019-05-22T12:38:42.845Z,59.94
2019-05-22T12:39:22.124Z,58.80
2019-05-22T12:40:22.543Z,58.12
2019-05-22T12:41:22.983Z,54.49
2019-05-22T12:42:23.518Z,56.50
2019-05-22T12:43:23.846Z,56.31
2019-05-22T12:44:45.443Z,56.02
2019-05-22T12:45:24.710Z,56.60
2019-05-22T12:46:25.135Z,57.26
2019-05-22T12:47:25.603Z,59.18
2019-05-22T12:48:26.015Z,58.61
2019-05-22T12:49:26.437Z,59.78
2019-05-22T12:50:48.023Z,61.02
2019-05-22T12:51:27.296Z,62.37
2019-05-22T12:52:27.730Z,62.08
2019-05-22T12:53:28.229Z,60.74
2019-05-22T12:54:45.242Z,60.93
2019-05-22T12:55:29.026Z,60.64
2019-05-22T12:56:50.615Z,60.74
2019-05-22T12:57:29.911Z,61.28
2019-05-22T12:58:30.328Z,59.47
2019-05-22T12:59:30.745Z,59.56
2019-05-22T13:00:31.185Z,60.55
2019-05-22T13:01:31.613Z,60.74
2019-05-22T13:02:53.203Z,60.90
2019-05-22T13:03:32.475Z,60.26
2019-05-22T13:04:32.914Z,59.66
2019-05-22T13:05:33.339Z,59.11
2019-05-22T13:06:33.772Z,59.78
2019-05-22T13:07:34.212Z,58.34
2019-05-22T13:08:55.831Z,58.12
2019-05-22T13:09:35.099Z,56.53
2019-05-22T13:10:35.505Z,54.90
2019-05-22T13:11:35.937Z,57.01
2019-05-22T13:12:36.371Z,56.53
2019-05-22T13:13:36.795Z,57.29
2019-05-22T13:15:09.117Z,58.63
2019-05-22T13:15:37.764Z,58.44
2019-05-22T13:16:38.094Z,59.11
2019-05-22T13:17:38.530Z,59.30
2019-05-22T13:18:38.966Z,58.15
2019-05-22T13:19:39.387Z,56.53
2019-05-22T13:21:00.983Z,56.15
2019-05-22T13:21:40.255Z,54.04
2019-05-22T13:22:40.687Z,53.08
2019-05-22T13:23:41.120Z,52.13
2019-05-22T13:24:41.564Z,52.80
2019-05-22T13:25:41.982Z,51.72
2019-05-22T13:27:03.588Z,47.13
2019-05-22T13:27:42.853Z,46.46
2019-05-22T13:28:43.282Z,43.79
2019-05-22T13:29:43.710Z,43.21
2019-05-22T13:30:44.158Z,44.07
2019-05-22T13:31:44.580Z,42.73
2019-05-22T13:33:06.181Z,43.21
2019-05-22T13:33:45.443Z,42.35
2019-05-22T13:34:45.881Z,42.27
2019-05-22T13:35:46.300Z,42.25
2019-05-22T13:36:46.734Z,41.49
2019-05-22T13:37:47.171Z,41.68
2019-05-22T13:39:08.765Z,41.32
2019-05-22T13:39:48.035Z,43.52
2019-05-22T13:40:48.493Z,39.79
2019-05-22T13:41:48.899Z,40.65
2019-05-22T13:42:49.329Z,44.09
2019-05-22T13:43:49.762Z,45.72
2019-05-22T13:45:27.777Z,45.53
2019-05-22T13:45:50.626Z,45.81